Time;durP1;ratioP1;P1;durP2;ratioP2;P2;SDS_P1;SDS_P2;PMS_P1;PMS_P2;Temp;Humidity;BMP_temperature;BMP_pressure;BME280_temperature;BME280_humidity;BME280_pressure;Samples;Min_cycle;Max_cycle;Signal;HPM_P1;HPM_P2
2024/02/14 00:00:52;;;;;;;;;5.50;4.25;;;;;11.77;79.26;101203.56;5037818;28;45454;-70
2024/02/14 00:03:17;;;;;;;;;6.25;5.00;;;;;11.79;79.14;101198.25;5070622;27;45460;-70
2024/02/14 00:05:42;;;;;;;;;5.75;5.75;;;;;11.79;79.36;101195.63;5044380;28;71629;-69
2024/02/14 00:08:08;;;;;;;;;9.25;7.75;;;;;11.78;79.53;101201.78;5070857;27;71979;-70
2024/02/14 00:10:33;;;;;;;;;10.25;8.00;;;;;11.82;79.45;101210.44;5041200;28;70755;-69
2024/02/14 00:12:58;;;;;;;;;9.75;7.75;;;;;11.82;79.62;101203.44;5037495;28;48829;-69
2024/02/14 00:15:25;;;;;;;;;11.50;8.00;;;;;11.82;79.82;101199.94;5037491;28;58086;-69
2024/02/14 00:17:50;;;;;;;;;7.25;6.00;;;;;11.84;80.05;101208.63;5048527;28;46275;-69
2024/02/14 00:20:15;;;;;;;;;7.50;6.50;;;;;11.83;80.02;101201.66;5040806;28;45304;-69
2024/02/14 00:22:41;;;;;;;;;8.50;6.50;;;;;11.82;80.07;101199.94;5042415;28;45411;-69
2024/02/14 00:25:07;;;;;;;;;4.50;4.25;;;;;11.83;80.50;101207.78;5039615;28;72828;-70
2024/02/14 00:27:32;;;;;;;;;4.00;4.00;;;;;11.83;80.06;101217.38;5042363;28;46096;-70
2024/02/14 00:29:57;;;;;;;;;7.75;6.00;;;;;11.83;80.21;101225.25;5043683;28;45603;-70
2024/02/14 00:32:23;;;;;;;;;6.25;6.00;;;;;11.77;80.62;101229.78;5072692;27;66843;-69
2024/02/14 00:34:49;;;;;;;;;6.00;5.25;;;;;11.77;80.31;101234.13;5042900;28;70819;-71
2024/02/14 00:37:15;;;;;;;;;6.25;5.00;;;;;11.74;80.75;101232.47;5077431;27;46188;-69
2024/02/14 00:39:40;;;;;;;;;5.25;5.25;;;;;11.75;81.10;101233.31;5048342;28;45469;-69
2024/02/14 00:42:06;;;;;;;;;8.00;6.00;;;;;11.74;80.98;101234.22;5072788;27;62729;-69
2024/02/14 00:44:31;;;;;;;;;7.25;6.00;;;;;11.75;81.29;101238.56;5041734;28;45500;-70
2024/02/14 00:46:59;;;;;;;;;9.50;6.00;;;;;11.78;81.07;101230.63;5041609;28;45487;-70
2024/02/14 00:49:25;;;;;;;;;8.00;5.00;;;;;11.74;81.14;101232.47;5044646;28;45469;-71
2024/02/14 00:51:50;;;;;;;;;7.75;5.25;;;;;11.74;81.87;101221.97;5043302;28;45623;-71
2024/02/14 00:54:16;;;;;;;;;8.75;6.75;;;;;11.76;81.79;101233.28;5033705;28;71876;-70
2024/02/14 00:56:41;;;;;;;;;6.25;6.25;;;;;11.78;81.37;101230.63;5039255;28;74593;-70
2024/02/14 00:59:07;;;;;;;;;8.50;7.00;;;;;11.77;82.11;101226.28;5045030;28;68318;-70
2024/02/14 01:01:33;;;;;;;;;9.50;6.75;;;;;11.74;82.48;101229.84;5042345;28;45939;-69
2024/02/14 01:03:58;;;;;;;;;7.25;7.00;;;;;11.75;82.24;101235.94;5046521;28;45574;-69
2024/02/14 01:06:24;;;;;;;;;6.25;5.00;;;;;11.76;82.05;101221.94;5039350;28;74948;-69
2024/02/14 01:08:49;;;;;;;;;7.75;6.25;;;;;11.75;82.15;101220.22;5044207;28;45535;-69
2024/02/14 01:11:15;;;;;;;;;9.00;6.00;;;;;11.76;82.19;101222.78;5042194;28;45523;-69
2024/02/14 01:13:41;;;;;;;;;9.75;5.00;;;;;11.77;82.43;101221.03;5040460;28;45488;-69
2024/02/14 01:16:07;;;;;;;;;5.75;5.00;;;;;11.77;82.58;101218.41;5041214;28;47963;-70
2024/02/14 01:18:33;;;;;;;;;10.00;7.00;;;;;11.79;82.66;101227.09;5073865;27;45473;-70
2024/02/14 01:20:58;;;;;;;;;6.50;6.50;;;;;11.78;82.72;101226.25;5063483;28;48404;-69
2024/02/14 01:23:24;;;;;;;;;6.75;6.75;;;;;11.80;83.08;101239.31;5048872;28;45271;-70
2024/02/14 01:25:50;;;;;;;;;8.25;6.00;;;;;11.80;82.94;101235.84;5046272;28;46387;-69
2024/02/14 01:28:15;;;;;;;;;7.25;7.00;;;;;11.78;83.15;101226.25;5039678;28;45190;-70
2024/02/14 01:30:41;;;;;;;;;5.00;5.00;;;;;11.77;82.86;101224.53;5072144;27;69378;-69
2024/02/14 01:33:06;;;;;;;;;9.00;6.25;;;;;11.79;83.45;101229.72;5041622;28;46985;-70
2024/02/14 01:35:31;;;;;;;;;9.75;7.50;;;;;11.77;83.26;101237.66;5040950;28;54117;-69
2024/02/14 01:37:57;;;;;;;;;9.50;7.00;;;;;11.78;83.17;101244.59;5040655;28;70884;-69
2024/02/14 01:40:23;;;;;;;;;6.50;5.50;;;;;11.77;83.65;101240.28;5074960;27;45462;-69
2024/02/14 01:42:48;;;;;;;;;10.75;6.50;;;;;11.78;83.50;101243.75;5039405;28;45848;-69
2024/02/14 01:45:13;;;;;;;;;9.50;6.75;;;;;11.78;83.63;101248.97;5044298;28;48060;-69
2024/02/14 01:47:42;;;;;;;;;11.25;7.00;;;;;11.74;83.37;101245.56;5072708;27;72735;-69
2024/02/14 01:50:11;;;;;;;;;10.25;8.25;;;;;11.77;83.44;101255.13;5071252;28;45411;-70
2024/02/14 01:52:40;;;;;;;;;7.50;6.25;;;;;11.76;83.48;101245.53;5084707;27;45604;-70
2024/02/14 01:55:07;;;;;;;;;7.00;6.00;;;;;11.82;83.54;101257.63;5082001;27;45594;-70
2024/02/14 01:57:33;;;;;;;;;9.00;7.00;;;;;11.82;83.51;101255.03;5073912;28;45654;-70
2024/02/14 02:00:00;;;;;;;;;8.00;7.50;;;;;11.83;83.65;101260.22;5039336;28;45315;-69
2024/02/14 02:02:26;;;;;;;;;10.00;8.75;;;;;11.86;83.72;101261.91;5074788;27;45455;-70
2024/02/14 02:04:52;;;;;;;;;8.75;7.00;;;;;11.88;84.00;101263.59;5046622;28;46069;-69
2024/02/14 02:07:19;;;;;;;;;7.75;6.75;;;;;11.87;83.66;101254.00;5055557;28;45290;-70
2024/02/14 02:09:45;;;;;;;;;11.25;7.25;;;;;11.91;83.46;101252.19;5056384;28;45296;-70
2024/02/14 02:12:10;;;;;;;;;9.00;7.50;;;;;11.92;83.81;101265.28;5043715;28;45632;-69
2024/02/14 02:14:35;;;;;;;;;6.50;5.00;;;;;11.91;84.05;101244.34;5040241;28;46163;-68
2024/02/14 02:17:01;;;;;;;;;9.75;8.50;;;;;11.95;83.53;101254.72;5042385;28;45347;-70
2024/02/14 02:19:27;;;;;;;;;10.75;8.00;;;;;11.96;84.09;101260.81;5041586;28;45519;-69
2024/02/14 02:21:52;;;;;;;;;8.50;5.75;;;;;11.95;83.78;101254.72;5071637;27;45614;-70
2024/02/14 02:24:18;;;;;;;;;8.25;6.50;;;;;11.96;83.74;101245.94;5042187;28;73560;-70
2024/02/14 02:26:43;;;;;;;;;11.00;9.00;;;;;11.98;83.57;101256.41;5040066;28;45426;-70
2024/02/14 02:29:09;;;;;;;;;7.25;7.25;;;;;11.98;84.21;101248.53;5060865;28;45449;-70
2024/02/14 02:31:34;;;;;;;;;11.25;7.50;;;;;11.99;84.25;101257.25;5046286;28;65877;-70
2024/02/14 02:33:59;;;;;;;;;9.75;6.75;;;;;11.98;84.16;101256.41;5040642;28;46091;-69
2024/02/14 02:36:25;;;;;;;;;9.50;7.00;;;;;12.00;83.93;101257.22;5047051;28;71425;-69
2024/02/14 02:38:51;;;;;;;;;7.75;7.75;;;;;12.01;84.14;101261.56;5040066;28;45378;-69
2024/02/14 02:41:16;;;;;;;;;5.00;5.00;;;;;12.00;84.27;101251.13;5044649;28;45559;-70
2024/02/14 02:43:43;;;;;;;;;6.75;6.75;;;;;12.00;84.25;101257.22;5046845;28;75323;-69
2024/02/14 02:46:11;;;;;;;;;9.75;7.25;;;;;12.01;84.04;101264.19;5043387;28;45821;-70
2024/02/14 02:48:36;;;;;;;;;7.50;7.00;;;;;12.00;84.60;101266.84;5043824;28;67503;-69
2024/02/14 02:51:01;;;;;;;;;6.75;6.00;;;;;12.00;84.61;101261.59;5071292;27;48947;-69
2024/02/14 02:53:27;;;;;;;;;6.25;6.25;;;;;12.00;84.71;101259.00;5084277;27;45370;-70
2024/02/14 02:55:54;;;;;;;;;7.00;5.50;;;;;12.01;84.70;101261.56;5039886;28;73302;-69
2024/02/14 02:58:20;;;;;;;;;8.50;5.50;;;;;12.01;85.04;101263.34;5033432;28;45573;-69
2024/02/14 03:00:49;;;;;;;;;6.00;6.00;;;;;12.00;84.90;101264.22;5046708;28;45197;-70
2024/02/14 03:03:14;;;;;;;;;9.50;7.00;;;;;12.01;85.39;101258.09;5071338;27;46334;-69
2024/02/14 03:05:40;;;;;;;;;13.25;7.00;;;;;11.97;85.85;101254.69;5080605;27;45375;-69
2024/02/14 03:08:07;;;;;;;;;5.00;4.00;;;;;12.01;85.94;101255.47;5046934;28;45613;-69
2024/02/14 03:10:33;;;;;;;;;6.25;6.00;;;;;12.02;85.82;101255.41;5038646;28;45755;-69
2024/02/14 03:12:58;;;;;;;;;8.50;6.75;;;;;12.02;85.61;101251.94;5051287;28;64036;-69
2024/02/14 03:15:25;;;;;;;;;8.00;5.25;;;;;12.04;86.03;101256.25;5055639;28;45299;-69
2024/02/14 03:17:51;;;;;;;;;6.00;6.00;;;;;12.05;85.34;101257.13;5043292;28;46068;-69
2024/02/14 03:20:16;;;;;;;;;7.00;5.00;;;;;12.05;86.11;101259.75;5036826;28;72976;-70
2024/02/14 03:22:44;;;;;;;;;5.25;4.75;;;;;12.06;85.70;101259.69;5022799;28;47034;-69
2024/02/14 03:25:20;;;;;;;;;8.75;7.00;;;;;12.03;85.84;101256.28;5053788;28;45450;-69
2024/02/14 03:27:48;;;;;;;;;7.25;6.00;;;;;12.05;85.96;101259.75;5038136;28;45361;-69
2024/02/14 03:30:16;;;;;;;;;7.75;5.00;;;;;12.05;85.58;101263.22;5072831;27;45241;-69
2024/02/14 03:32:43;;;;;;;;;5.50;4.50;;;;;12.07;86.18;101252.69;5040254;28;46328;-69
2024/02/14 03:35:10;;;;;;;;;7.50;5.25;;;;;12.09;85.94;101251.75;5056124;28;45856;-69
2024/02/14 03:37:37;;;;;;;;;6.75;6.00;;;;;12.11;86.05;101254.31;5043270;28;45430;-69
2024/02/14 03:40:04;;;;;;;;;6.00;5.00;;;;;12.13;86.17;101256.03;5047350;28;45366;-69
2024/02/14 03:42:29;;;;;;;;;5.00;5.00;;;;;12.16;86.15;101260.31;5043208;28;47239;-68
2024/02/14 03:45:02;;;;;;;;;10.00;6.75;;;;;12.18;85.79;101260.28;5075095;27;47439;-69
2024/02/14 03:47:28;;;;;;;;;9.00;6.75;;;;;12.20;86.26;101254.13;5044571;28;45509;-69
2024/02/14 03:49:53;;;;;;;;;9.75;7.50;;;;;12.24;86.02;101244.41;5080779;27;45920;-69
2024/02/14 03:52:18;;;;;;;;;4.75;4.75;;;;;12.25;86.00;101254.88;5049533;28;75662;-69
2024/02/14 03:54:44;;;;;;;;;9.75;7.50;;;;;12.26;85.96;101248.69;5045808;28;71000;-68
2024/02/14 03:57:09;;;;;;;;;6.00;6.00;;;;;12.28;85.55;101252.13;5042222;28;45740;-69
2024/02/14 03:59:40;;;;;;;;;8.75;6.50;;;;;12.29;85.98;101247.78;5042817;28;66457;-69
2024/02/14 04:02:09;;;;;;;;;7.50;7.00;;;;;12.29;85.84;101247.78;5047730;28;46731;-69
2024/02/14 04:04:36;;;;;;;;;6.50;6.00;;;;;12.33;85.76;101254.66;5062901;28;45419;-69
2024/02/14 04:07:02;;;;;;;;;8.00;6.00;;;;;12.34;85.85;101269.47;5038593;28;45392;-69
2024/02/14 04:09:28;;;;;;;;;6.75;5.25;;;;;12.34;85.86;101258.97;5038684;28;45663;-69
2024/02/14 04:11:53;;;;;;;;;9.75;6.00;;;;;12.34;85.86;101258.97;5046532;28;74061;-69
2024/02/14 04:14:19;;;;;;;;;8.75;5.75;;;;;12.37;85.81;101266.78;5039463;28;73300;-69
2024/02/14 04:16:44;;;;;;;;;7.75;6.25;;;;;12.39;85.90;101264.97;5035293;28;45411;-69
2024/02/14 04:19:10;;;;;;;;;7.50;6.75;;;;;12.41;85.68;101267.56;5045487;28;45439;-69
2024/02/14 04:21:37;;;;;;;;;9.50;8.00;;;;;12.42;85.99;101266.69;5075750;27;45477;-69
2024/02/14 04:24:03;;;;;;;;;8.50;7.00;;;;;12.41;85.91;101272.81;5037734;28;45454;-69
2024/02/14 04:26:28;;;;;;;;;8.25;7.50;;;;;12.42;85.82;101269.31;5043809;28;45213;-69
2024/02/14 04:28:54;;;;;;;;;9.25;7.00;;;;;12.42;86.17;101259.66;5071770;28;45547;-69
2024/02/14 04:31:19;;;;;;;;;6.50;6.00;;;;;12.42;86.06;101262.28;5071278;27;45437;-69
2024/02/14 04:33:50;;;;;;;;;6.75;5.00;;;;;12.43;85.96;101255.25;5071034;27;45883;-68
2024/02/14 04:36:15;;;;;;;;;6.50;5.25;;;;;12.42;86.26;101275.41;5053061;28;45289;-68
2024/02/14 04:38:41;;;;;;;;;8.00;6.75;;;;;12.42;86.18;101269.31;5037514;28;45372;-69
2024/02/14 04:41:06;;;;;;;;;6.25;6.00;;;;;12.43;86.25;101276.25;5056622;28;74799;-69
2024/02/14 04:43:31;;;;;;;;;10.50;5.25;;;;;12.43;86.42;101279.78;5040269;28;69935;-69
2024/02/14 04:45:57;;;;;;;;;5.75;4.00;;;;;12.45;86.37;101275.34;5052377;28;56205;-69
2024/02/14 04:48:22;;;;;;;;;8.50;5.75;;;;;12.46;85.83;101263.06;5069184;27;63930;-69
2024/02/14 04:50:48;;;;;;;;;10.25;7.00;;;;;12.46;86.37;101273.56;5038037;28;72082;-69
2024/02/14 04:53:13;;;;;;;;;7.75;5.50;;;;;12.45;86.27;101263.97;5036203;28;45575;-69
2024/02/14 04:55:39;;;;;;;;;10.00;6.25;;;;;12.43;86.09;101260.50;5037943;28;45398;-68
2024/02/14 04:58:05;;;;;;;;;6.75;6.75;;;;;12.42;86.73;101267.53;5036466;28;73123;-69
2024/02/14 05:00:30;;;;;;;;;10.50;6.00;;;;;12.42;86.61;101270.16;5037863;28;47069;-68
2024/02/14 05:02:57;;;;;;;;;5.00;4.25;;;;;12.43;86.47;101260.50;5041360;28;73174;-68
2024/02/14 05:05:22;;;;;;;;;9.75;5.75;;;;;12.43;86.76;101257.88;5039844;28;45510;-69
2024/02/14 05:07:48;;;;;;;;;5.00;4.75;;;;;12.42;86.83;101259.66;5074074;28;45293;-69
2024/02/14 05:10:13;;;;;;;;;8.50;7.75;;;;;12.44;86.82;101273.59;5036080;28;71209;-69
2024/02/14 05:12:40;;;;;;;;;7.00;7.00;;;;;12.43;86.82;101263.13;5040350;28;45347;-69
2024/02/14 05:15:05;;;;;;;;;9.25;8.00;;;;;12.41;87.05;101265.81;5042764;28;45472;-69
2024/02/14 05:17:31;;;;;;;;;9.00;8.25;;;;;12.43;87.08;101273.63;5047095;28;45513;-69
2024/02/14 05:19:56;;;;;;;;;10.00;8.25;;;;;12.42;86.76;101278.03;5044330;28;75599;-68
2024/02/14 05:22:22;;;;;;;;;8.50;7.75;;;;;12.43;86.93;101274.53;5041586;28;45310;-69
2024/02/14 05:24:48;;;;;;;;;12.50;9.00;;;;;12.44;87.54;101278.84;5040207;28;45475;-69
2024/02/14 05:27:13;;;;;;;;;9.50;9.50;;;;;12.43;87.25;101268.38;5045379;28;69707;-69
2024/02/14 05:29:39;;;;;;;;;10.00;7.00;;;;;12.45;87.24;101275.34;5074697;27;46190;-69
2024/02/14 05:32:04;;;;;;;;;10.00;9.00;;;;;12.46;87.12;101255.19;5035882;28;45217;-69
2024/02/14 05:34:30;;;;;;;;;12.75;9.25;;;;;12.45;87.16;101256.97;5046563;28;45719;-69
2024/02/14 05:36:56;;;;;;;;;9.00;6.50;;;;;12.43;87.18;101268.38;5033404;28;71022;-68
2024/02/14 05:39:21;;;;;;;;;9.00;6.75;;;;;12.44;87.35;101259.63;5043237;28;45882;-69
2024/02/14 05:41:46;;;;;;;;;8.50;7.50;;;;;12.44;87.59;101255.22;5044644;28;45295;-75
2024/02/14 05:44:12;;;;;;;;;7.00;6.25;;;;;12.44;87.56;101257.84;5040005;28;45352;-69
2024/02/14 05:46:37;;;;;;;;;8.50;8.50;;;;;12.46;87.78;101256.03;5073381;28;45455;-69
2024/02/14 05:49:03;;;;;;;;;10.25;8.50;;;;;12.45;87.51;101248.22;5039864;28;75895;-69
2024/02/14 05:51:28;;;;;;;;;8.50;8.00;;;;;12.44;87.95;101246.50;5041021;28;45440;-69
2024/02/14 05:53:54;;;;;;;;;12.75;7.25;;;;;12.44;87.88;101249.13;5039570;28;45509;-69
2024/02/14 05:56:19;;;;;;;;;9.25;7.00;;;;;12.45;87.69;101248.22;5047528;28;72947;-69
2024/02/14 05:58:44;;;;;;;;;9.00;8.00;;;;;12.48;87.91;101256.00;5039058;28;69449;-69
2024/02/14 06:01:10;;;;;;;;;9.00;8.00;;;;;12.48;87.66;101256.00;5040638;28;66037;-69
2024/02/14 06:03:35;;;;;;;;;10.25;7.75;;;;;12.49;89.23;101258.59;5038982;28;45276;-69
2024/02/14 06:06:00;;;;;;;;;8.00;8.00;;;;;12.54;87.98;101258.47;5045286;28;73897;-69
2024/02/14 06:08:26;;;;;;;;;9.00;8.00;;;;;12.53;87.90;101262.84;5040870;28;46324;-69
2024/02/14 06:10:53;;;;;;;;;8.75;8.00;;;;;12.53;88.28;101262.84;5040357;28;45813;-69
2024/02/14 06:13:18;;;;;;;;;13.50;8.75;;;;;12.56;88.00;101271.56;5038788;28;45479;-70
2024/02/14 06:15:44;;;;;;;;;7.25;7.25;;;;;12.55;87.99;101273.31;5069996;28;45327;-69
2024/02/14 06:18:09;;;;;;;;;7.25;7.25;;;;;12.57;88.01;101271.53;5040011;28;75514;-69
2024/02/14 06:20:35;;;;;;;;;7.75;6.00;;;;;12.58;88.47;101268.00;5073583;27;45332;-68
2024/02/14 06:23:00;;;;;;;;;8.25;6.00;;;;;12.60;88.36;101275.81;5039030;28;65624;-68
2024/02/14 06:25:26;;;;;;;;;8.00;7.50;;;;;12.61;88.18;101280.19;5038508;28;51132;-69
2024/02/14 06:27:53;;;;;;;;;9.50;7.75;;;;;12.60;88.14;101274.06;5040181;28;46058;-69
2024/02/14 06:30:18;;;;;;;;;10.00;7.00;;;;;12.62;88.41;101282.75;5037795;28;46685;-68
2024/02/14 06:32:44;;;;;;;;;10.75;8.50;;;;;12.63;88.52;101286.25;5041860;28;61433;-69
2024/02/14 06:35:09;;;;;;;;;9.00;7.75;;;;;12.59;88.02;101279.34;5037181;28;45586;-69
2024/02/14 06:37:34;;;;;;;;;9.00;8.25;;;;;12.65;88.34;101289.69;5034541;28;71215;-69
2024/02/14 06:40:00;;;;;;;;;10.00;8.25;;;;;12.65;88.22;101292.31;5039201;28;56449;-68
2024/02/14 06:42:26;;;;;;;;;13.25;9.75;;;;;12.65;88.82;101295.81;5038081;28;58574;-72
2024/02/14 06:44:51;;;;;;;;;14.25;11.75;;;;;12.66;88.95;101299.28;5083134;27;45524;-66
2024/02/14 06:47:17;;;;;;;;;12.25;9.50;;;;;12.68;88.40;101294.88;5039472;28;45386;-74
2024/02/14 06:49:42;;;;;;;;;13.00;10.00;;;;;12.69;88.98;101296.59;5040420;28;45299;-69
2024/02/14 06:52:07;;;;;;;;;11.25;8.75;;;;;12.71;88.84;101303.53;5055325;28;68815;-81
2024/02/14 06:54:33;;;;;;;;;11.25;8.00;;;;;12.74;88.83;101310.44;5040010;28;66521;-71
2024/02/14 06:56:59;;;;;;;;;9.25;9.00;;;;;12.76;88.55;101310.41;5040626;28;46996;-73
2024/02/14 06:59:26;;;;;;;;;11.75;8.75;;;;;12.76;88.70;101313.91;5042421;28;45165;-70
2024/02/14 07:01:54;;;;;;;;;10.50;9.00;;;;;12.78;88.46;101327.00;5038131;28;45255;-70
2024/02/14 07:04:25;;;;;;;;;12.25;12.25;;;;;12.81;88.69;101326.91;5053231;28;45263;-71
2024/02/14 07:06:50;;;;;;;;;12.00;9.75;;;;;12.82;88.72;101332.13;5041345;28;46464;-75
2024/02/14 07:09:16;;;;;;;;;13.25;9.75;;;;;12.84;88.79;101325.06;5040744;28;45218;-76
2024/02/14 07:11:42;;;;;;;;;14.00;11.50;;;;;12.89;88.75;101335.44;5041039;28;45456;-68
2024/02/14 07:14:08;;;;;;;;;10.75;9.25;;;;;12.91;88.80;101337.13;5039986;28;67162;-68
2024/02/14 07:16:33;;;;;;;;;10.25;9.25;;;;;12.89;88.37;101324.94;5039267;28;72562;-69
2024/02/14 07:18:58;;;;;;;;;14.75;11.25;;;;;12.96;88.60;101330.88;5038738;28;68097;-71
2024/02/14 07:21:24;;;;;;;;;9.25;8.75;;;;;12.96;88.76;101329.13;5075025;27;45461;-76
2024/02/14 07:23:49;;;;;;;;;11.25;9.75;;;;;13.00;88.27;101329.91;5039443;28;73098;-67
2024/02/14 07:26:15;;;;;;;;;12.50;9.50;;;;;13.02;88.45;101330.72;5037664;28;47472;-67
2024/02/14 07:28:41;;;;;;;;;11.75;9.75;;;;;13.03;88.57;101324.56;5048507;28;45427;-70
2024/02/14 07:31:06;;;;;;;;;11.75;8.25;;;;;13.06;88.42;101333.22;5038077;28;45277;-68
2024/02/14 07:33:31;;;;;;;;;13.25;10.25;;;;;13.07;88.67;101345.47;5046308;28;63318;-70
2024/02/14 07:35:57;;;;;;;;;9.00;8.75;;;;;13.10;88.63;101352.38;5047091;28;75518;-67
2024/02/14 07:38:23;;;;;;;;;12.75;10.00;;;;;13.11;88.43;101360.22;5046886;28;45503;-69
2024/02/14 07:40:48;;;;;;;;;12.50;10.00;;;;;13.13;88.38;101368.06;5046259;28;45441;-69
2024/02/14 07:43:13;;;;;;;;;65.50;49.00;;;;;13.14;88.54;101361.94;5046476;28;45473;-70
2024/02/14 07:45:39;;;;;;;;;11.00;10.50;;;;;13.16;88.69;101359.25;5037864;28;61335;-68
2024/02/14 07:48:05;;;;;;;;;11.00;9.00;;;;;13.18;88.46;101365.31;5038122;28;45470;-69
2024/02/14 07:50:30;;;;;;;;;9.25;9.00;;;;;13.20;88.56;101382.75;5040882;28;45325;-67
2024/02/14 07:52:55;;;;;;;;;11.25;9.75;;;;;13.23;88.56;101369.53;5035316;28;73257;-68
2024/02/14 07:55:22;;;;;;;;;9.50;9.00;;;;;13.26;88.33;101368.59;5076340;27;47342;-67
2024/02/14 07:57:47;;;;;;;;;10.50;8.75;;;;;13.29;88.16;101374.63;5038531;28;45784;-68
2024/02/14 08:00:18;;;;;;;;;13.00;8.75;;;;;13.33;88.05;101371.94;5043645;28;64958;-68
2024/02/14 08:02:44;;;;;;;;;13.00;10.75;;;;;13.33;88.13;101364.91;5038790;28;45647;-68
2024/02/14 08:05:09;;;;;;;;;7.00;7.00;;;;;13.37;87.90;101360.44;5051915;28;74527;-70
2024/02/14 08:07:34;;;;;;;;;13.75;9.25;;;;;13.40;87.92;101361.22;5054161;28;65923;-68
2024/02/14 08:10:00;;;;;;;;;14.75;9.75;;;;;13.40;87.47;101373.50;5036235;28;68056;-69
2024/02/14 08:12:25;;;;;;;;;9.75;8.00;;;;;13.43;88.04;101360.25;5071089;27;45454;-67
2024/02/14 08:14:51;;;;;;;;;10.75;10.00;;;;;13.45;87.98;101367.19;5039946;28;45402;-65
2024/02/14 08:17:17;;;;;;;;;14.00;11.00;;;;;13.45;88.20;101369.81;5048827;28;45787;-65
2024/02/14 08:19:43;;;;;;;;;12.00;9.50;;;;;13.54;88.17;101384.47;5047520;28;68121;-66
2024/02/14 08:22:09;;;;;;;;;10.25;9.25;;;;;13.59;87.75;101373.84;5042448;28;45628;-64
2024/02/14 08:24:34;;;;;;;;;12.75;8.75;;;;;13.62;87.68;101363.22;5042653;28;46877;-68
2024/02/14 08:26:59;;;;;;;;;12.00;9.00;;;;;13.68;87.25;101374.41;5030811;28;70282;-71
2024/02/14 08:29:24;;;;;;;;;12.25;8.50;;;;;13.73;87.17;101378.69;5051758;28;52150;-68
2024/02/14 08:31:50;;;;;;;;;9.75;8.25;;;;;13.73;87.22;101378.69;5052566;28;62604;-69
2024/02/14 08:34:18;;;;;;;;;9.75;8.25;;;;;13.78;87.36;101382.03;5080840;27;46291;-68
2024/02/14 08:36:44;;;;;;;;;11.00;8.25;;;;;13.79;87.09;101391.66;5057735;28;46457;-67
2024/02/14 08:39:10;;;;;;;;;8.75;7.50;;;;;13.83;87.01;101394.16;5048453;28;60751;-68
2024/02/14 08:41:40;;;;;;;;;8.00;8.00;;;;;13.86;86.92;101398.44;5073874;27;45390;-67
2024/02/14 08:44:05;;;;;;;;;13.00;9.50;;;;;13.89;87.16;101392.25;5054083;28;46264;-66
2024/02/14 08:46:31;;;;;;;;;9.00;8.25;;;;;13.92;86.76;101394.78;5042881;28;62998;-68
2024/02/14 08:48:56;;;;;;;;;13.00;8.25;;;;;13.92;86.66;101386.91;5035307;28;45422;-66
2024/02/14 08:51:23;;;;;;;;;10.50;7.75;;;;;13.96;86.51;101389.38;5038734;28;73391;-67
2024/02/14 08:53:48;;;;;;;;;8.00;7.00;;;;;13.98;86.50;101377.03;5040961;28;47194;-67
2024/02/14 08:56:14;;;;;;;;;12.25;7.50;;;;;13.99;86.64;101373.50;5043997;28;45466;-69
2024/02/14 08:58:39;;;;;;;;;9.25;7.50;;;;;14.04;86.52;101371.59;5086860;27;45402;-63
2024/02/14 09:01:05;;;;;;;;;9.00;7.00;;;;;14.08;86.49;101379.34;5038498;28;45383;-63
2024/02/14 09:03:31;;;;;;;;;9.50;6.75;;;;;14.11;86.66;101374.91;5040476;28;46972;-65
2024/02/14 09:06:00;;;;;;;;;12.00;7.50;;;;;14.14;86.37;101387.94;5041940;28;45285;-66
2024/02/14 09:08:25;;;;;;;;;7.75;7.50;;;;;14.17;86.24;101395.75;5042046;28;45461;-63
2024/02/14 09:10:50;;;;;;;;;7.75;6.00;;;;;14.17;86.32;101411.53;5039251;28;45871;-66
2024/02/14 09:13:16;;;;;;;;;8.25;8.25;;;;;14.16;86.22;101407.16;5041034;28;67736;-66
2024/02/14 09:15:41;;;;;;;;;9.00;8.00;;;;;14.18;86.09;101412.38;5023568;28;46583;-64
2024/02/14 09:18:06;;;;;;;;;9.50;7.00;;;;;14.18;86.19;101408.00;5044628;28;45464;-64
2024/02/14 09:20:32;;;;;;;;;9.75;8.50;;;;;14.18;86.32;101404.50;5072383;27;73389;-64
2024/02/14 09:22:58;;;;;;;;;7.75;6.50;;;;;14.21;86.25;101407.03;5046250;28;45347;-65
2024/02/14 09:25:25;;;;;;;;;5.00;5.00;;;;;14.21;86.03;101405.25;5045643;28;45927;-67
2024/02/14 09:27:50;;;;;;;;;7.75;5.00;;;;;14.20;86.13;101400.91;5046269;28;45481;-61
2024/02/14 09:30:17;;;;;;;;;5.75;4.50;;;;;14.20;85.86;101397.41;5039239;28;45459;-63
2024/02/14 09:32:46;;;;;;;;;5.00;4.25;;;;;14.20;86.31;101400.91;5043555;28;46179;-63
2024/02/14 09:35:11;;;;;;;;;6.25;5.00;;;;;14.22;86.01;101391.19;5074142;27;45858;-63
2024/02/14 09:37:39;;;;;;;;;3.75;3.75;;;;;14.25;85.80;101387.59;5040195;28;54397;-73
2024/02/14 09:40:12;;;;;;;;;6.00;3.50;;;;;14.31;86.39;101390.03;5047675;28;45473;-78
2024/02/14 09:42:40;;;;;;;;;4.25;3.25;;;;;14.33;85.97;101379.47;5038150;28;48034;-74
2024/02/14 09:45:07;;;;;;;;;6.75;2.50;;;;;14.38;85.82;101386.31;5042023;28;45443;-74
2024/02/14 09:47:33;;;;;;;;;6.25;4.00;;;;;14.39;85.89;101382.75;5056247;28;45365;-77
2024/02/14 09:50:00;;;;;;;;;4.00;3.00;;;;;14.44;85.85;101388.72;5040760;28;45403;-78
2024/02/14 09:52:25;;;;;;;;;3.00;3.00;;;;;14.51;85.58;101385.91;5021914;28;48324;-78
2024/02/14 09:54:52;;;;;;;;;4.50;4.00;;;;;14.55;85.31;101380.47;5073626;27;56758;-77
2024/02/14 09:57:17;;;;;;;;;5.00;4.00;;;;;14.62;85.76;101375.88;5056233;28;58674;-73
2024/02/14 09:59:44;;;;;;;;;4.50;4.25;;;;;14.65;85.03;101369.69;5040731;28;45365;-64
2024/02/14 10:02:10;;;;;;;;;8.00;4.25;;;;;14.67;85.04;101366.06;5058416;28;51595;-73
2024/02/14 10:04:37;;;;;;;;;5.00;3.75;;;;;14.68;84.96;101364.28;5075046;27;45360;-73
2024/02/14 10:07:04;;;;;;;;;5.50;4.00;;;;;14.69;84.73;101368.66;5045719;28;45402;-77
2024/02/14 10:09:30;;;;;;;;;26.25;17.75;;;;;14.70;84.93;101355.44;5077974;27;45444;-73
2024/02/14 10:11:57;;;;;;;;;11.00;9.00;;;;;14.77;84.80;101372.75;5055889;28;46037;-72
2024/02/14 10:14:23;;;;;;;;;7.00;4.50;;;;;14.81;84.91;101378.75;5048321;28;45322;-73
2024/02/14 10:16:48;;;;;;;;;4.75;4.00;;;;;14.87;84.81;101372.41;5057649;28;45568;-74
2024/02/14 10:19:15;;;;;;;;;8.00;3.50;;;;;14.94;84.51;101372.19;5073053;27;70657;-74
2024/02/14 10:21:40;;;;;;;;;6.75;6.00;;;;;14.97;84.06;101377.31;5053779;28;47451;-71
2024/02/14 10:24:07;;;;;;;;;4.50;4.00;;;;;14.99;84.07;101372.84;5053256;28;72038;-74
2024/02/14 10:26:32;;;;;;;;;5.75;4.00;;;;;15.03;83.67;101381.50;5074267;27;45376;-70
2024/02/14 10:28:58;;;;;;;;;5.75;4.50;;;;;15.12;83.77;101393.50;5074380;27;45446;-72
2024/02/14 10:31:26;;;;;;;;;6.50;5.00;;;;;15.18;83.46;101394.16;5038822;28;69790;-66
2024/02/14 10:33:58;;;;;;;;;6.50;5.00;;;;;15.20;83.42;101396.72;5038967;28;45515;-66
2024/02/14 10:36:24;;;;;;;;;7.25;5.00;;;;;15.22;83.03;101397.53;5049688;28;45518;-69
2024/02/14 10:38:50;;;;;;;;;7.00;6.00;;;;;15.21;82.73;101408.13;5069471;27;53588;-69
2024/02/14 10:41:19;;;;;;;;;7.00;5.50;;;;;15.20;82.90;101409.91;5041104;28;45579;-73
2024/02/14 10:43:45;;;;;;;;;8.00;7.50;;;;;15.22;82.65;101410.72;5055362;28;45242;-69
2024/02/14 10:46:25;;;;;;;;;9.00;6.00;;;;;15.23;82.66;101411.56;5072398;27;45537;-69
2024/02/14 10:48:54;;;;;;;;;9.75;7.50;;;;;15.28;82.81;101412.28;5070342;27;45415;-69
2024/02/14 10:51:21;;;;;;;;;7.50;7.00;;;;;15.31;82.71;101415.66;5036169;28;45467;-70
2024/02/14 10:53:46;;;;;;;;;11.75;8.75;;;;;15.31;82.33;101413.03;5046079;28;45419;-71
2024/02/14 10:56:18;;;;;;;;;8.50;7.00;;;;;15.27;82.21;101421.13;5040238;28;45883;-71
2024/02/14 10:58:46;;;;;;;;;11.50;7.00;;;;;15.29;82.65;101430.69;5041826;28;45511;-70
2024/02/14 11:01:11;;;;;;;;;11.50;8.00;;;;;15.31;82.46;101435.91;5027578;28;48345;-71
2024/02/14 11:03:37;;;;;;;;;49.75;38.50;;;;;15.32;82.33;101433.22;5064408;27;56168;-69
2024/02/14 11:06:03;;;;;;;;;60.75;45.50;;;;;15.29;82.52;101425.41;5049552;28;45397;-71
2024/02/14 11:08:32;;;;;;;;;12.00;9.75;;;;;15.30;82.83;101432.41;5039738;28;45587;-71
2024/02/14 11:10:59;;;;;;;;;10.00;8.00;;;;;15.34;82.73;101420.84;5038979;28;46035;-70
2024/02/14 11:13:31;;;;;;;;;8.25;7.50;;;;;15.36;82.71;101421.63;5023515;28;46139;-70
2024/02/14 11:15:59;;;;;;;;;9.50;8.00;;;;;15.33;82.33;101424.41;5074932;27;45498;-70